createdAt,value
2024-05-09T00:00:42.171Z,100300.53
2024-05-09T00:03:10.874Z,100309.38
2024-05-09T00:05:41.293Z,100300.72
2024-05-09T00:08:10.057Z,100305.88
2024-05-09T00:10:39.339Z,100302.72
2024-05-09T00:13:07.790Z,100310.28
2024-05-09T00:15:35.818Z,100307.63
2024-05-09T00:18:04.563Z,100309.38
2024-05-09T00:20:38.443Z,100311.69
2024-05-09T00:23:12.821Z,100308.47
2024-05-09T00:25:45.441Z,100309.22
2024-05-09T00:28:13.249Z,100309.69
2024-05-09T00:30:40.717Z,100316.09
2024-05-09T00:33:09.797Z,100310.59
2024-05-09T00:35:38.426Z,100312.09
2024-05-09T00:38:05.940Z,100311.25
2024-05-09T00:40:39.854Z,100310.44
2024-05-09T00:43:10.238Z,100315.84
2024-05-09T00:45:37.479Z,100315.00
2024-05-09T00:48:07.971Z,100315.41
2024-05-09T00:50:40.363Z,100314.22
2024-05-09T00:53:10.435Z,100312.09
2024-05-09T00:55:39.042Z,100308.94
2024-05-09T00:58:09.193Z,100313.59
2024-05-09T01:00:39.818Z,100312.25
2024-05-09T01:03:13.368Z,100305.72
2024-05-09T01:05:42.844Z,100304.59
2024-05-09T01:08:11.031Z,100311.31
2024-05-09T01:10:38.693Z,100307.78
2024-05-09T01:13:07.178Z,100312.09
2024-05-09T01:15:35.749Z,100308.94
2024-05-09T01:18:09.851Z,100309.09
2024-05-09T01:20:42.211Z,100309.72
2024-05-09T01:23:12.678Z,100306.25
2024-05-09T01:25:40.715Z,100305.69
2024-05-09T01:28:07.828Z,100306.94
2024-05-09T01:30:37.262Z,100308.22
2024-05-09T01:33:08.053Z,100308.59
2024-05-09T01:35:37.464Z,100303.72
2024-05-09T01:38:05.344Z,100316.94
2024-05-09T01:40:37.881Z,100325.09
2024-05-09T01:43:11.232Z,100321.16
2024-05-09T01:45:42.592Z,100328.09
2024-05-09T01:48:10.994Z,100326.50
2024-05-09T01:50:41.622Z,100318.03
2024-05-09T01:53:11.932Z,100322.59
2024-05-09T01:55:39.409Z,100320.78
2024-05-09T01:58:07.673Z,100317.63
2024-05-09T02:00:39.830Z,100328.94
2024-05-09T02:03:16.022Z,100328.28
2024-05-09T02:05:46.586Z,100318.34
2024-05-09T02:08:16.008Z,100319.38
2024-05-09T02:10:44.631Z,100320.94
2024-05-09T02:13:12.508Z,100317.78
2024-05-09T02:15:39.581Z,100323.78
2024-05-09T02:18:08.176Z,100323.69
2024-05-09T02:20:38.437Z,100325.16
2024-05-09T02:23:06.784Z,100327.44
2024-05-09T02:25:34.758Z,100326.22
2024-05-09T02:28:02.074Z,100334.47
2024-05-09T02:30:38.348Z,100338.19
2024-05-09T02:33:10.384Z,100329.59
2024-05-09T02:35:39.408Z,100337.72
2024-05-09T02:38:06.629Z,100330.38
2024-05-09T02:40:37.615Z,100328.25
2024-05-09T02:43:07.976Z,100328.25
2024-05-09T02:45:35.378Z,100326.44
2024-05-09T02:48:02.918Z,100322.38
2024-05-09T02:50:37.218Z,100321.81
2024-05-09T02:53:07.655Z,100320.69
2024-05-09T02:55:34.790Z,100317.53
2024-05-09T02:58:01.884Z,100317.19
2024-05-09T03:00:36.949Z,100317.53
2024-05-09T03:03:09.023Z,100315.97
2024-05-09T03:05:37.479Z,100316.75
2024-05-09T03:08:05.075Z,100329.06
2024-05-09T03:10:36.275Z,100333.69
2024-05-09T03:13:14.566Z,100325.00
2024-05-09T03:15:43.191Z,100321.91
2024-05-09T03:18:11.372Z,100325.09
2024-05-09T03:20:39.482Z,100325.41
2024-05-09T03:23:08.479Z,100324.16
2024-05-09T03:25:36.484Z,100322.81
2024-05-09T03:28:03.801Z,100330.44
2024-05-09T03:30:39.512Z,100326.50
2024-05-09T03:33:20.153Z,100329.22
2024-05-09T03:35:48.540Z,100325.41
2024-05-09T03:38:16.318Z,100321.22
2024-05-09T03:40:48.367Z,100323.59
2024-05-09T03:43:16.101Z,100328.56
2024-05-09T03:45:43.591Z,100325.75
2024-05-09T03:48:11.042Z,100325.53
2024-05-09T03:50:38.579Z,100321.47
2024-05-09T03:53:06.541Z,100325.41
2024-05-09T03:55:33.732Z,100327.00
2024-05-09T03:58:00.852Z,100330.38
2024-05-09T04:00:35.604Z,100324.84
2024-05-09T04:03:08.580Z,100323.41
2024-05-09T04:05:39.990Z,100328.50
2024-05-09T04:08:07.959Z,100335.94
2024-05-09T04:10:35.592Z,100338.66
2024-05-09T04:13:04.070Z,100329.38
2024-05-09T04:15:31.860Z,100330.97
2024-05-09T04:17:59.619Z,100333.91
2024-05-09T04:20:36.629Z,100339.53
2024-05-09T04:23:08.611Z,100339.63
2024-05-09T04:25:37.017Z,100343.69
2024-05-09T04:28:04.373Z,100340.97
2024-05-09T04:30:37.873Z,100340.38
2024-05-09T04:33:10.454Z,100347.03
2024-05-09T04:35:39.570Z,100341.38
2024-05-09T04:38:06.965Z,100350.41
2024-05-09T04:40:36.589Z,100349.72
2024-05-09T04:43:15.174Z,100344.72
2024-05-09T04:45:43.341Z,100353.41
2024-05-09T04:48:10.450Z,100354.31
2024-05-09T04:50:39.366Z,100355.19
2024-05-09T04:53:15.036Z,100355.72
2024-05-09T04:55:42.308Z,100360.06
2024-05-09T04:58:09.707Z,100357.78
2024-05-09T05:00:39.021Z,100359.13
2024-05-09T05:03:14.029Z,100356.59
2024-05-09T05:05:45.159Z,100364.75
2024-05-09T05:08:14.572Z,100366.31
2024-05-09T05:10:42.868Z,100366.72
2024-05-09T05:13:18.496Z,100357.25
2024-05-09T05:15:46.762Z,100368.88
2024-05-09T05:18:15.316Z,100360.88
2024-05-09T05:20:42.617Z,100364.38
2024-05-09T05:23:14.377Z,100370.19
2024-05-09T05:25:42.106Z,100359.13
2024-05-09T05:28:09.264Z,100358.22
2024-05-09T05:30:37.779Z,100358.13
2024-05-09T05:33:06.520Z,100360.09
2024-05-09T05:35:34.559Z,100356.81
2024-05-09T05:38:02.401Z,100356.94
2024-05-09T05:40:36.329Z,100359.69
2024-05-09T05:43:06.346Z,100357.94
2024-05-09T05:45:33.255Z,100353.56
2024-05-09T05:48:03.004Z,100356.28
2024-05-09T05:50:35.818Z,100365.00
2024-05-09T05:53:06.455Z,100360.88
2024-05-09T05:55:33.709Z,100369.06
2024-05-09T05:58:01.922Z,100368.16
2024-05-09T06:00:34.994Z,100367.72
2024-05-09T06:03:05.968Z,100373.53
2024-05-09T06:05:33.209Z,100366.75
2024-05-09T06:08:00.524Z,100372.56
2024-05-09T06:10:37.110Z,100375.53
2024-05-09T06:13:06.841Z,100384.25
2024-05-09T06:15:33.772Z,100375.97
2024-05-09T06:18:00.899Z,100382.59
2024-05-09T06:20:35.477Z,100379.81
2024-05-09T06:23:05.894Z,100382.50
2024-05-09T06:25:33.182Z,100376.09
2024-05-09T06:28:01.055Z,100374.91
2024-05-09T06:30:36.805Z,100379.38
2024-05-09T06:33:09.166Z,100372.06
2024-05-09T06:35:37.214Z,100372.88
2024-05-09T06:38:04.934Z,100376.34
2024-05-09T06:40:37.900Z,100371.41
2024-05-09T06:43:18.144Z,100374.66
2024-05-09T06:45:52.502Z,100378.06
2024-05-09T06:48:20.472Z,100373.66
2024-05-09T06:50:48.066Z,100378.91
2024-05-09T06:53:16.924Z,100371.81
2024-05-09T06:55:43.880Z,100380.16
2024-05-09T06:58:10.746Z,100379.63
2024-05-09T07:00:40.511Z,100383.78
2024-05-09T07:03:10.332Z,100380.53
2024-05-09T07:05:37.900Z,100375.75
2024-05-09T07:08:06.088Z,100381.75
2024-05-09T07:10:35.526Z,100372.31
2024-05-09T07:13:03.754Z,100371.78
2024-05-09T07:15:30.975Z,100374.16
2024-05-09T07:17:57.939Z,100374.97
2024-05-09T07:20:32.488Z,100373.41
2024-05-09T07:23:03.023Z,100369.72
2024-05-09T07:25:30.277Z,100374.41
2024-05-09T07:27:57.349Z,100372.03
2024-05-09T07:30:32.593Z,100374.34
2024-05-09T07:33:02.274Z,100368.81
2024-05-09T07:35:30.046Z,100376.66
2024-05-09T07:37:57.280Z,100380.53
2024-05-09T07:40:32.789Z,100375.56
2024-05-09T07:43:11.778Z,100373.69
2024-05-09T07:45:48.653Z,100378.38
2024-05-09T07:53:39.309Z,100362.78
2024-05-09T07:56:10.248Z,100361.31
2024-05-09T07:58:38.865Z,100363.81
2024-05-09T08:01:06.142Z,100355.00
2024-05-09T08:03:34.231Z,100350.72
2024-05-09T08:06:01.440Z,100351.97
2024-05-09T08:08:28.279Z,100348.75
2024-05-09T08:10:55.197Z,100346.78
2024-05-09T08:13:22.185Z,100354.94
2024-05-09T08:15:49.290Z,100350.69
2024-05-09T08:18:17.840Z,100350.41
2024-05-09T08:20:48.410Z,100349.22
2024-05-09T08:23:15.313Z,100350.78
2024-05-09T08:25:42.138Z,100346.25
2024-05-09T08:28:09.593Z,100350.19
2024-05-09T08:30:38.111Z,100349.28
2024-05-09T08:33:07.179Z,100349.84
2024-05-09T08:35:35.291Z,100350.81
2024-05-09T08:38:06.958Z,100360.13
2024-05-09T08:40:36.760Z,100355.38
2024-05-09T08:43:10.061Z,100356.28
2024-05-09T08:45:42.133Z,100359.03
2024-05-09T08:48:12.029Z,100354.56
2024-05-09T08:50:41.523Z,100351.34
2024-05-09T08:53:09.206Z,100350.09
2024-05-09T08:55:40.562Z,100347.84
2024-05-09T08:58:15.071Z,100353.91
2024-05-09T09:00:44.099Z,100352.66
2024-05-09T09:03:15.761Z,100355.56
2024-05-09T09:05:53.172Z,100342.78
2024-05-09T09:08:20.465Z,100335.09
2024-05-09T09:10:48.086Z,100334.34
2024-05-09T09:13:15.506Z,100336.53
2024-05-09T09:15:49.819Z,100338.03
2024-05-09T09:18:17.484Z,100342.28
2024-05-09T09:20:45.433Z,100340.53
2024-05-09T09:23:12.421Z,100343.00
2024-05-09T09:25:40.641Z,100350.47
2024-05-09T09:28:08.357Z,100344.06
2024-05-09T09:30:39.338Z,100343.16
2024-05-09T09:33:08.379Z,100343.94
2024-05-09T09:35:38.583Z,100341.00
2024-05-09T09:38:07.787Z,100340.75
2024-05-09T09:40:40.798Z,100341.34
2024-05-09T09:43:23.241Z,100339.91
2024-05-09T09:45:52.653Z,100340.75
2024-05-09T09:48:21.397Z,100345.38
2024-05-09T09:50:51.225Z,100347.41
2024-05-09T09:53:19.259Z,100348.78
2024-05-09T09:55:46.783Z,100340.00
2024-05-09T09:58:16.412Z,100347.22
2024-05-09T10:00:44.089Z,100337.53
2024-05-09T10:03:11.186Z,100337.78
2024-05-09T10:05:39.862Z,100332.84
2024-05-09T10:08:10.579Z,100337.00
2024-05-09T10:10:38.119Z,100345.06
2024-05-09T10:13:06.345Z,100339.13
2024-05-09T10:15:53.963Z,100334.56
2024-05-09T10:18:27.116Z,100327.88
2024-05-09T10:20:56.396Z,100335.88
2024-05-09T10:23:30.301Z,100334.66
2024-05-09T10:26:03.516Z,100325.41
2024-05-09T10:28:32.987Z,100334.13
2024-05-09T10:31:13.768Z,100324.28
2024-05-09T10:33:50.214Z,100327.22
2024-05-09T10:36:26.146Z,100335.38
2024-05-09T10:38:54.537Z,100319.25
2024-05-09T10:41:23.215Z,100328.78
2024-05-09T10:43:51.123Z,100325.09
2024-05-09T10:46:21.626Z,100327.41
2024-05-09T10:48:49.622Z,100328.38
2024-05-09T10:51:18.678Z,100315.31
2024-05-09T10:53:47.828Z,100318.56
2024-05-09T10:56:14.950Z,100312.28
2024-05-09T10:58:41.907Z,100310.56
2024-05-09T11:01:10.018Z,100312.75
2024-05-09T11:03:38.407Z,100312.41
2024-05-09T11:06:06.652Z,100297.31
2024-05-09T11:08:34.912Z,100316.75
2024-05-09T11:11:07.147Z,100300.06
2024-05-09T11:13:36.448Z,100310.41
2024-05-09T11:16:04.732Z,100300.94
2024-05-09T11:18:36.391Z,100297.13
2024-05-09T11:21:12.293Z,100306.78
2024-05-09T11:23:39.512Z,100300.84
2024-05-09T11:26:07.205Z,100293.47
2024-05-09T11:28:36.060Z,100295.22
2024-05-09T11:31:10.431Z,100291.06
2024-05-09T11:33:44.019Z,100290.44
2024-05-09T11:36:11.984Z,100270.50
2024-05-09T11:38:38.956Z,100282.06
2024-05-09T11:41:06.201Z,100274.34
2024-05-09T11:43:33.359Z,100266.91
2024-05-09T11:46:02.886Z,100263.09
2024-05-09T11:48:30.461Z,100271.94
2024-05-09T11:50:57.607Z,100277.88
2024-05-09T11:53:24.500Z,100279.25
2024-05-09T11:55:51.285Z,100276.72
2024-05-09T11:58:19.173Z,100269.72
2024-05-09T12:00:47.102Z,100265.34
2024-05-09T12:03:14.651Z,100264.97
2024-05-09T12:05:41.768Z,100264.25
2024-05-09T12:08:08.939Z,100258.03
2024-05-09T12:10:36.899Z,100258.09
2024-05-09T12:13:05.965Z,100256.59
2024-05-09T12:15:37.075Z,100256.91
2024-05-09T12:18:05.907Z,100248.44
2024-05-09T12:20:37.563Z,100248.44
2024-05-09T12:23:09.465Z,100244.91
2024-05-09T12:25:38.333Z,100235.94
2024-05-09T12:28:05.929Z,100242.59
2024-05-09T12:30:37.597Z,100238.78
2024-05-09T12:33:12.157Z,100241.50
2024-05-09T12:35:40.538Z,100243.06
2024-05-09T12:38:07.551Z,100239.53
2024-05-09T12:40:37.569Z,100234.97
2024-05-09T12:43:10.287Z,100222.22
2024-05-09T12:45:38.727Z,100223.91
2024-05-09T12:48:08.513Z,100215.63
2024-05-09T12:50:35.822Z,100214.53
2024-05-09T12:53:04.118Z,100209.91
2024-05-09T12:55:40.430Z,100209.16
2024-05-09T12:58:18.307Z,100204.09
2024-05-09T13:00:46.242Z,100206.28
2024-05-09T13:03:13.830Z,100188.94
2024-05-09T13:05:46.680Z,100192.84
2024-05-09T13:08:13.904Z,100193.69
2024-05-09T13:10:41.156Z,100185.09
2024-05-09T13:13:10.476Z,100182.00
2024-05-09T13:15:37.638Z,100176.81
2024-05-09T13:18:06.055Z,100176.81
2024-05-09T13:20:35.425Z,100170.06
2024-05-09T13:23:04.846Z,100167.16
2024-05-09T13:25:34.386Z,100159.59
2024-05-09T13:28:01.508Z,100170.16
2024-05-09T13:30:37.349Z,100163.25
2024-05-09T13:33:07.671Z,100170.22
2024-05-09T13:35:35.826Z,100167.69
2024-05-09T13:38:04.727Z,100164.06
2024-05-09T13:40:34.897Z,100159.28
2024-05-09T13:43:06.642Z,100158.72
2024-05-09T13:45:34.377Z,100167.47
2024-05-09T13:48:06.765Z,100155.41
2024-05-09T13:50:36.283Z,100157.22
2024-05-09T13:53:06.355Z,100146.69
2024-05-09T13:55:35.185Z,100151.00
2024-05-09T13:58:02.564Z,100145.97
2024-05-09T14:00:42.035Z,100137.53
2024-05-09T14:03:14.547Z,100142.34
2024-05-09T14:05:41.854Z,100134.72
2024-05-09T14:08:09.124Z,100130.22
2024-05-09T14:10:36.285Z,100139.81
2024-05-09T14:13:06.303Z,100133.66
2024-05-09T14:15:33.067Z,100127.34
2024-05-09T14:17:59.926Z,100134.72
2024-05-09T14:20:31.329Z,100129.38
2024-05-09T14:23:00.998Z,100133.56
2024-05-09T14:25:29.527Z,100122.84
2024-05-09T14:27:58.370Z,100117.44
2024-05-09T14:30:34.260Z,100116.97
2024-05-09T14:33:06.093Z,100112.63
2024-05-09T14:35:33.974Z,100104.09
2024-05-09T14:38:01.638Z,100113.03
2024-05-09T14:40:38.923Z,100104.94
2024-05-09T14:43:11.212Z,100102.41
2024-05-09T14:45:38.647Z,100096.69
2024-05-09T14:48:07.400Z,100098.88
2024-05-09T14:50:38.522Z,100095.91
2024-05-09T14:53:44.052Z,100086.03
2024-05-09T14:56:10.973Z,100083.16
2024-05-09T14:58:37.999Z,100084.00
2024-05-09T15:01:05.724Z,100079.09
2024-05-09T15:03:32.636Z,100084.50
2024-05-09T15:05:59.674Z,100079.09
2024-05-09T15:08:26.714Z,100073.28
2024-05-09T15:10:53.793Z,100071.41
2024-05-09T15:13:21.391Z,100066.84
2024-05-09T15:15:48.769Z,100067.75
2024-05-09T15:18:16.791Z,100062.81
2024-05-09T15:20:44.903Z,100058.53
2024-05-09T15:23:12.140Z,100065.72
2024-05-09T15:25:38.911Z,100062.03
2024-05-09T15:28:07.860Z,100060.25
2024-05-09T15:30:35.473Z,100065.88
2024-05-09T15:33:04.619Z,100051.44
2024-05-09T15:35:32.228Z,100060.06
2024-05-09T15:37:59.852Z,100055.34
2024-05-09T15:40:35.657Z,100052.53
2024-05-09T15:43:07.780Z,100045.66
2024-05-09T15:45:35.457Z,100040.69
2024-05-09T15:48:03.247Z,100043.66
2024-05-09T15:50:37.192Z,100042.56
2024-05-09T15:53:08.954Z,100043.34
2024-05-09T15:55:36.794Z,100051.44
2024-05-09T15:58:05.168Z,100042.56
2024-05-09T16:00:38.305Z,100039.16
2024-05-09T16:03:13.262Z,100035.25
2024-05-09T16:05:44.030Z,100029.34
2024-05-09T16:08:12.251Z,100037.31
2024-05-09T16:10:44.227Z,100030.13
2024-05-09T16:13:12.174Z,100036.25
2024-05-09T16:15:39.323Z,100029.59
2024-05-09T16:18:06.692Z,100031.50
2024-05-09T16:20:39.225Z,100032.47
2024-05-09T16:23:08.968Z,100024.06
2024-05-09T16:25:36.330Z,100020.38
2024-05-09T16:28:07.390Z,100020.81
2024-05-09T16:30:37.308Z,100018.50
2024-05-09T16:33:05.233Z,100022.25
2024-05-09T16:35:32.955Z,100024.41
2024-05-09T16:38:02.239Z,100021.13
2024-05-09T16:40:36.592Z,100024.72
2024-05-09T16:43:07.535Z,100016.63
2024-05-09T16:45:34.918Z,100016.19
2024-05-09T16:48:02.469Z,100011.84
2024-05-09T16:50:33.905Z,100018.38
2024-05-09T16:53:03.484Z,100023.06
2024-05-09T16:55:31.147Z,100013.25
2024-05-09T16:57:58.493Z,100015.59
2024-05-09T17:00:35.602Z,100014.38
2024-05-09T17:03:09.649Z,100010.34
2024-05-09T17:05:37.222Z,100014.06
2024-05-09T17:08:04.883Z,100010.03
2024-05-09T17:10:34.244Z,100016.91
2024-05-09T17:13:07.055Z,100017.06
2024-05-09T17:15:36.196Z,100017.06
2024-05-09T17:18:04.179Z,100013.31
2024-05-09T17:20:34.669Z,100009.88
2024-05-09T17:23:04.935Z,100006.72
2024-05-09T17:25:32.613Z,100005.44
2024-05-09T17:28:06.418Z,100004.66
2024-05-09T17:30:36.937Z,100007.75
2024-05-09T17:33:06.842Z,100003.06
2024-05-09T17:35:35.273Z,100005.56
2024-05-09T17:38:02.200Z,99997.78
2024-05-09T17:40:33.759Z,100007.09
2024-05-09T17:43:04.115Z,100004.25
2024-05-09T17:45:31.952Z,100009.03
2024-05-09T17:47:59.856Z,100001.38
2024-05-09T17:50:34.707Z,100011.13
2024-05-09T17:53:04.249Z,100003.47
2024-05-09T17:55:31.144Z,100003.69
2024-05-09T17:57:58.230Z,100005.78
2024-05-09T18:00:36.319Z,100004.06
2024-05-09T18:03:07.297Z,100007.25
2024-05-09T18:05:36.710Z,100008.44
2024-05-09T18:08:04.576Z,99999.88
2024-05-09T18:10:36.695Z,100006.94
2024-05-09T18:13:07.209Z,100001.59
2024-05-09T18:15:34.613Z,100008.84
2024-05-09T18:18:02.653Z,100003.81
2024-05-09T18:20:38.146Z,100003.94
2024-05-09T18:23:10.887Z,100002.78
2024-05-09T18:25:37.725Z,99999.28
2024-05-09T18:28:05.657Z,100005.03
2024-05-09T18:30:35.519Z,100000.72
2024-05-09T18:33:06.459Z,100002.00
2024-05-09T18:35:34.770Z,100000.06
2024-05-09T18:38:01.704Z,100001.81
2024-05-09T18:40:34.234Z,99999.56
2024-05-09T18:43:05.504Z,100005.72
2024-05-09T18:45:33.915Z,100009.81
2024-05-09T18:48:01.238Z,100009.34
2024-05-09T18:50:34.663Z,100007.09
2024-05-09T18:53:10.170Z,100010.97
2024-05-09T18:55:37.643Z,100023.94
2024-05-09T18:58:05.318Z,100020.91
2024-05-09T19:00:36.343Z,100022.84
2024-05-09T19:03:11.800Z,100026.38
2024-05-09T19:05:43.233Z,100026.56
2024-05-09T19:08:11.795Z,100025.81
2024-05-09T19:10:39.566Z,100033.31
2024-05-09T19:13:11.730Z,100028.28
2024-05-09T19:15:41.176Z,100029.56
2024-05-09T19:18:10.486Z,100033.31
2024-05-09T19:20:38.855Z,100033.47
2024-05-09T19:23:07.308Z,100030.41
2024-05-09T19:25:35.032Z,100027.84
2024-05-09T19:28:03.109Z,100029.81
2024-05-09T19:30:38.150Z,100032.81
2024-05-09T19:33:09.103Z,100025.28
2024-05-09T19:35:36.678Z,100028.53
2024-05-09T19:38:03.947Z,100038.31
2024-05-09T19:40:32.996Z,100037.59
2024-05-09T19:43:02.574Z,100032.91
2024-05-09T19:45:30.304Z,100029.84
2024-05-09T19:47:57.484Z,100035.41
2024-05-09T19:50:32.463Z,100031.28
2024-05-09T19:53:07.431Z,100032.91
2024-05-09T19:55:34.990Z,100039.06
2024-05-09T19:58:05.180Z,100047.53
2024-05-09T20:00:40.066Z,100041.50
2024-05-09T20:03:10.120Z,100042.34
2024-05-09T20:05:37.896Z,100047.63
2024-05-09T20:08:05.894Z,100041.31
2024-05-09T20:10:35.195Z,100040.31
2024-05-09T20:13:05.053Z,100045.31
2024-05-09T20:15:35.066Z,100048.25
2024-05-09T20:18:02.581Z,100050.59
2024-05-09T20:20:37.091Z,100047.47
2024-05-09T20:23:08.428Z,100046.72
2024-05-09T20:25:35.281Z,100044.69
2024-05-09T20:28:02.357Z,100046.56
2024-05-09T20:30:32.810Z,100049.22
2024-05-09T20:33:07.056Z,100048.97
2024-05-09T20:35:35.453Z,100049.28
2024-05-09T20:38:03.421Z,100050.34
2024-05-09T20:40:35.215Z,100049.84
2024-05-09T20:43:05.998Z,100055.13
2024-05-09T20:45:33.577Z,100051.75
2024-05-09T20:48:02.465Z,100054.13
2024-05-09T20:50:37.157Z,100054.38
2024-05-09T20:53:09.559Z,100049.13
2024-05-09T20:55:36.911Z,100050.72
2024-05-09T20:58:03.854Z,100046.56
2024-05-09T21:00:38.894Z,100053.09
2024-05-09T21:03:09.622Z,100058.13
2024-05-09T21:05:36.790Z,100053.94
2024-05-09T21:08:04.404Z,100054.75
2024-05-09T21:10:33.430Z,100063.41
2024-05-09T21:13:03.356Z,100060.78
2024-05-09T21:15:31.364Z,100063.13
2024-05-09T21:17:58.739Z,100063.41
2024-05-09T21:20:31.149Z,100066.78
2024-05-09T21:22:59.984Z,100062.34
2024-05-09T21:25:27.185Z,100064.75
2024-05-09T21:27:54.486Z,100069.47
2024-05-09T21:30:32.209Z,100057.94
2024-05-09T21:33:13.372Z,100060.31
2024-05-09T21:35:42.651Z,100054.03
2024-05-09T21:38:09.643Z,100060.84
2024-05-09T21:40:37.907Z,100055.63
2024-05-09T21:43:06.702Z,100063.22
2024-05-09T21:45:34.762Z,100061.13
2024-05-09T21:48:05.929Z,100059.03
2024-05-09T21:50:39.605Z,100058.25
2024-05-09T21:53:08.694Z,100056.94
2024-05-09T21:55:35.793Z,100062.44
2024-05-09T21:58:03.422Z,100066.13
2024-05-09T22:00:36.335Z,100065.84
2024-05-09T22:03:10.275Z,100062.47
2024-05-09T22:05:39.255Z,100064.03
2024-05-09T22:08:06.792Z,100060.88
2024-05-09T22:10:36.005Z,100056.97
2024-05-09T22:13:08.023Z,100049.13
2024-05-09T22:15:37.822Z,100058.28
2024-05-09T22:18:06.667Z,100052.50
2024-05-09T22:20:37.637Z,100052.00
2024-05-09T22:23:06.702Z,100061.41
2024-05-09T22:25:33.911Z,100065.31
2024-05-09T22:28:02.322Z,100061.13
2024-05-09T22:32:59.580Z,100059.28
2024-05-09T22:35:26.560Z,100062.16
2024-05-09T22:37:53.503Z,100058.75
2024-05-09T22:40:29.004Z,100068.22
2024-05-09T22:43:05.493Z,100061.94
2024-05-09T22:45:32.610Z,100061.94
2024-05-09T22:47:59.857Z,100061.41
2024-05-09T22:50:31.006Z,100063.75
2024-05-09T22:53:00.026Z,100060.09
2024-05-09T22:55:26.783Z,100057.47
2024-05-09T22:57:53.637Z,100058.00
2024-05-09T23:00:29.186Z,100055.38
2024-05-09T23:03:03.004Z,100058.22
2024-05-09T23:05:30.826Z,100052.97
2024-05-09T23:07:57.891Z,100046.97
2024-05-09T23:10:31.695Z,100055.06
2024-05-09T23:13:03.226Z,100052.44
2024-05-09T23:15:30.244Z,100048.75
2024-05-09T23:17:57.958Z,100046.91
2024-05-09T23:20:33.855Z,100048.19
2024-05-09T23:23:08.838Z,100047.63
2024-05-09T23:25:37.099Z,100047.63
2024-05-09T23:28:04.507Z,100048.94
2024-05-09T23:30:37.584Z,100047.06
2024-05-09T23:33:08.417Z,100050.47
2024-05-09T23:35:35.632Z,100044.41
2024-05-09T23:38:02.686Z,100045.44
2024-05-09T23:40:38.141Z,100039.91
2024-05-09T23:43:11.510Z,100038.75
2024-05-09T23:45:39.383Z,100041.63
2024-05-09T23:48:06.886Z,100039.81
2024-05-09T23:50:37.031Z,100038.75
2024-05-09T23:53:07.518Z,100030.91
2024-05-09T23:55:35.756Z,100034.56
2024-05-09T23:58:02.650Z,100030.84
